createdAt,value
2022-08-05T00:00:16.227Z,28.10
2022-08-05T00:02:51.148Z,28.20
2022-08-05T00:06:03.253Z,28.30
2022-08-05T00:08:32.922Z,28.10
2022-08-05T00:11:01.339Z,27.80
2022-08-05T00:13:39.284Z,27.80
2022-08-05T00:16:10.944Z,28.00
2022-08-05T00:18:44.270Z,28.10
2022-08-05T00:21:12.647Z,28.10
2022-08-05T00:23:46.894Z,28.00
2022-08-05T00:26:21.930Z,27.90
2022-08-05T00:28:49.499Z,27.80
2022-08-05T00:31:16.480Z,27.70
2022-08-05T00:34:54.967Z,27.60
2022-08-05T00:37:12.979Z,27.60
2022-08-05T00:39:41.524Z,27.70
2022-08-05T00:42:11.494Z,27.70
2022-08-05T00:44:58.499Z,27.60
2022-08-05T00:47:26.481Z,27.30
2022-08-05T00:50:13.563Z,27.20
2022-08-05T00:52:40.415Z,27.30
2022-08-05T00:55:07.602Z,27.30
2022-08-05T00:57:55.160Z,27.30
2022-08-05T01:00:21.921Z,27.10
2022-08-05T01:02:50.182Z,27.10
2022-08-05T01:05:17.208Z,27.20
2022-08-05T01:08:41.464Z,27.10
2022-08-05T01:10:52.647Z,27.10
2022-08-05T01:13:58.217Z,27.00
2022-08-05T01:16:49.325Z,27.00
2022-08-05T01:19:36.735Z,27.00
2022-08-05T01:22:47.018Z,27.00
2022-08-05T01:25:42.802Z,27.00
2022-08-05T01:28:51.801Z,27.00
2022-08-05T01:31:33.057Z,26.90
2022-08-05T01:34:32.067Z,26.90
2022-08-05T01:37:25.158Z,27.10
2022-08-05T01:39:54.974Z,27.30
2022-08-05T01:42:27.937Z,27.20
2022-08-05T01:44:59.183Z,26.90
2022-08-05T01:47:38.597Z,26.90
2022-08-05T01:50:15.219Z,26.90
2022-08-05T01:52:49.769Z,26.70
2022-08-05T01:55:19.214Z,26.70
2022-08-05T01:58:12.247Z,26.90
2022-08-05T02:00:38.508Z,26.90
2022-08-05T02:03:24.247Z,26.80
2022-08-05T02:05:57.924Z,26.70
2022-08-05T02:08:30.736Z,26.60
2022-08-05T02:11:33.962Z,26.60
2022-08-05T02:14:05.062Z,26.80
2022-08-05T02:16:53.152Z,26.70
2022-08-05T02:19:34.942Z,26.80
2022-08-05T02:22:08.137Z,26.60
2022-08-05T02:24:39.078Z,26.60
2022-08-05T02:27:11.523Z,26.80
2022-08-05T02:29:59.174Z,26.90
2022-08-05T02:32:30.994Z,26.90
2022-08-05T02:35:13.758Z,26.90
2022-08-05T02:37:47.854Z,26.90
2022-08-05T02:40:23.041Z,26.80
2022-08-05T02:42:54.180Z,26.60
2022-08-05T02:45:24.372Z,26.50
2022-08-05T02:48:06.970Z,26.50
2022-08-05T02:50:43.655Z,26.60
2022-08-05T02:53:16.140Z,26.50
2022-08-05T02:55:54.168Z,26.50
2022-08-05T02:58:26.821Z,26.60
2022-08-05T03:00:58.841Z,26.70
2022-08-05T03:03:28.582Z,26.70
2022-08-05T03:06:57.015Z,26.70
2022-08-05T03:08:52.313Z,26.50
2022-08-05T03:11:55.999Z,26.30
2022-08-05T03:14:07.949Z,26.40
2022-08-05T03:16:35.845Z,26.50
2022-08-05T03:19:12.538Z,26.40
2022-08-05T03:21:41.548Z,26.50
2022-08-05T03:24:18.460Z,26.50
2022-08-05T03:26:56.907Z,26.40
2022-08-05T03:29:24.405Z,26.50
2022-08-05T03:32:11.744Z,26.50
2022-08-05T03:34:50.659Z,26.40
2022-08-05T03:37:19.839Z,26.30
2022-08-05T03:39:59.253Z,26.20
2022-08-05T03:42:29.149Z,26.30
2022-08-05T03:45:21.526Z,26.30
2022-08-05T03:47:49.421Z,26.30
2022-08-05T03:50:16.326Z,26.40
2022-08-05T03:55:50.894Z,26.40
2022-08-05T03:56:30.587Z,26.10
2022-08-05T03:59:06.291Z,26.20
2022-08-05T04:01:37.940Z,26.30
2022-08-05T04:04:09.924Z,26.30
2022-08-05T04:06:37.425Z,26.30
2022-08-05T04:09:08.472Z,26.10
2022-08-05T04:11:47.226Z,25.80
2022-08-05T04:14:18.366Z,25.80
2022-08-05T04:16:45.433Z,25.90
2022-08-05T04:19:13.160Z,26.10
2022-08-05T04:22:08.506Z,26.00
2022-08-05T04:24:27.815Z,25.70
2022-08-05T04:26:55.324Z,25.60
2022-08-05T04:29:25.194Z,25.50
2022-08-05T04:31:54.188Z,25.60
2022-08-05T04:34:33.948Z,25.80
2022-08-05T04:37:03.435Z,26.10
2022-08-05T04:39:31.196Z,26.20
2022-08-05T04:41:59.560Z,26.30
2022-08-05T04:44:30.073Z,26.20
2022-08-05T04:47:09.544Z,26.10
2022-08-05T04:50:01.444Z,26.20
2022-08-05T04:52:27.454Z,26.40
2022-08-05T04:54:57.196Z,26.40
2022-08-05T04:57:29.234Z,26.30
2022-08-05T04:59:58.500Z,26.20
2022-08-05T05:02:37.169Z,26.40
2022-08-05T05:05:16.751Z,26.60
2022-08-05T05:08:04.197Z,26.70
2022-08-05T05:10:33.535Z,26.80
2022-08-05T05:13:03.685Z,26.90
2022-08-05T05:15:56.866Z,26.80
2022-08-05T05:18:31.573Z,26.90
2022-08-05T05:21:01.977Z,26.90
2022-08-05T05:24:02.205Z,27.00
2022-08-05T05:26:17.045Z,26.90
2022-08-05T05:28:44.795Z,26.90
2022-08-05T05:31:12.591Z,26.80
2022-08-05T05:33:58.892Z,26.80
2022-08-05T05:36:28.797Z,27.20
2022-08-05T05:38:57.401Z,27.90
2022-08-05T05:41:24.704Z,28.30
2022-08-05T05:43:58.372Z,28.80
2022-08-05T05:46:27.568Z,29.00
2022-08-05T05:48:54.540Z,29.40
2022-08-05T05:51:25.960Z,29.60
2022-08-05T05:53:59.479Z,29.90
2022-08-05T05:56:31.514Z,30.00
2022-08-05T05:59:03.150Z,30.20
2022-08-05T06:01:36.899Z,30.30
2022-08-05T06:04:06.970Z,30.50
2022-08-05T06:06:34.807Z,30.60
2022-08-05T06:09:05.560Z,30.80
2022-08-05T06:11:34.774Z,31.00
2022-08-05T06:14:06.132Z,31.00
2022-08-05T06:16:37.347Z,31.20
2022-08-05T06:19:07.912Z,31.20
2022-08-05T06:21:38.376Z,31.40
2022-08-05T06:24:11.609Z,31.60
2022-08-05T06:26:45.857Z,31.80
2022-08-05T06:29:25.377Z,31.90
2022-08-05T06:32:13.646Z,32.10
2022-08-05T06:34:53.533Z,32.20
2022-08-05T06:37:39.384Z,32.30
2022-08-05T06:40:11.000Z,32.40
2022-08-05T06:42:39.645Z,32.50
2022-08-05T06:45:08.275Z,32.60
2022-08-05T06:48:44.358Z,32.60
2022-08-05T06:50:23.565Z,32.80
2022-08-05T06:53:03.547Z,33.00
2022-08-05T06:55:37.642Z,33.10
2022-08-05T06:58:20.057Z,33.30
2022-08-05T07:00:51.831Z,33.40
2022-08-05T07:03:18.735Z,33.50
2022-08-05T07:05:46.449Z,33.50
2022-08-05T07:08:13.658Z,33.70
2022-08-05T07:10:53.002Z,33.70
2022-08-05T07:13:58.427Z,33.90
2022-08-05T07:18:08.591Z,33.90
2022-08-05T07:22:28.771Z,33.80
2022-08-05T07:25:22.717Z,33.90
2022-08-05T07:27:58.829Z,33.80
2022-08-05T07:30:39.093Z,33.80
2022-08-05T07:33:16.054Z,33.80
2022-08-05T07:36:04.410Z,33.90
2022-08-05T07:38:34.919Z,33.90
2022-08-05T07:41:35.134Z,33.90
2022-08-05T07:44:03.853Z,33.90
2022-08-05T07:46:31.874Z,33.90
2022-08-05T07:49:05.811Z,33.90
2022-08-05T07:51:36.645Z,33.90
2022-08-05T07:54:06.109Z,34.00
2022-08-05T07:57:02.577Z,34.10
2022-08-05T07:59:23.365Z,34.10
2022-08-05T08:01:58.368Z,34.00
2022-08-05T08:04:37.898Z,33.90
2022-08-05T08:07:07.121Z,33.90
2022-08-05T08:09:35.032Z,33.90
2022-08-05T08:12:11.491Z,33.90
2022-08-05T08:14:46.840Z,33.80
2022-08-05T08:17:16.143Z,33.90
2022-08-05T08:20:20.995Z,33.90
2022-08-05T08:22:35.486Z,34.00
2022-08-05T08:25:03.755Z,33.90
2022-08-05T08:27:47.391Z,34.00
2022-08-05T08:30:32.511Z,34.00
2022-08-05T08:33:08.697Z,34.00
2022-08-05T08:35:52.704Z,34.10
2022-08-05T08:38:35.631Z,34.10
2022-08-05T08:41:09.795Z,34.10
2022-08-05T08:45:20.485Z,34.00
2022-08-05T08:46:29.308Z,34.00
2022-08-05T08:49:06.280Z,33.90
2022-08-05T08:52:05.812Z,33.90
2022-08-05T08:54:36.682Z,33.80
2022-08-05T08:57:11.226Z,33.70
2022-08-05T08:59:41.663Z,33.80
2022-08-05T09:02:14.590Z,33.80
2022-08-05T09:04:58.213Z,33.70
2022-08-05T09:07:39.433Z,33.70
2022-08-05T09:10:20.579Z,33.70
2022-08-05T09:12:51.039Z,33.80
2022-08-05T09:15:20.371Z,33.70
2022-08-05T09:17:49.804Z,33.70
2022-08-05T09:20:36.758Z,33.70
2022-08-05T09:23:19.121Z,33.80
2022-08-05T09:26:01.561Z,33.90
2022-08-05T09:28:33.497Z,34.00
2022-08-05T09:31:22.661Z,33.90
2022-08-05T09:34:01.037Z,34.00
2022-08-05T09:36:45.679Z,34.00
2022-08-05T09:39:24.693Z,34.00
2022-08-05T09:42:08.773Z,34.00
2022-08-05T09:44:43.663Z,34.00
2022-08-05T09:47:17.865Z,34.00
2022-08-05T09:50:02.421Z,34.10
2022-08-05T09:52:35.013Z,34.10
2022-08-05T09:55:56.992Z,34.20
2022-08-05T09:57:59.695Z,34.20
2022-08-05T10:00:27.831Z,34.30
2022-08-05T10:02:58.706Z,34.30
2022-08-05T10:05:28.430Z,34.30
2022-08-05T10:08:35.288Z,34.20
2022-08-05T10:10:54.159Z,34.20
2022-08-05T10:13:45.713Z,34.30
2022-08-05T10:16:33.904Z,34.30
2022-08-05T10:19:08.608Z,34.40
2022-08-05T10:21:40.199Z,34.40
2022-08-05T10:24:13.026Z,34.40
2022-08-05T10:26:51.277Z,34.40
2022-08-05T10:30:05.718Z,34.40
2022-08-05T10:32:53.684Z,34.40
2022-08-05T10:35:01.016Z,34.40
2022-08-05T10:37:41.303Z,34.50
2022-08-05T10:40:50.087Z,34.60
2022-08-05T10:43:57.743Z,34.60
2022-08-05T10:46:46.888Z,34.60
2022-08-05T10:49:18.795Z,34.60
2022-08-05T10:52:00.726Z,34.60
2022-08-05T10:55:02.561Z,34.60
2022-08-05T10:57:33.900Z,34.60
2022-08-05T11:00:20.770Z,34.60
2022-08-05T11:03:24.982Z,34.60
2022-08-05T11:06:15.179Z,34.70
2022-08-05T11:09:16.373Z,34.70
2022-08-05T11:11:53.187Z,34.70
2022-08-05T11:14:57.747Z,34.70
2022-08-05T11:17:59.193Z,34.70
2022-08-05T11:20:32.916Z,34.70
2022-08-05T11:23:08.873Z,34.70
2022-08-05T11:26:05.500Z,34.70
2022-08-05T11:28:35.979Z,34.70
2022-08-05T11:31:06.216Z,34.80
2022-08-05T11:33:46.366Z,34.90
2022-08-05T11:36:34.356Z,34.90
2022-08-05T11:39:09.365Z,34.90
2022-08-05T11:41:56.403Z,35.00
2022-08-05T11:44:52.820Z,34.90
2022-08-05T11:47:49.819Z,35.00
2022-08-05T11:50:09.010Z,35.00
2022-08-05T11:52:36.017Z,35.00
2022-08-05T11:55:07.539Z,35.00
2022-08-05T11:58:07.841Z,35.00
2022-08-05T12:00:31.256Z,35.10
2022-08-05T12:02:58.424Z,35.10
2022-08-05T12:05:36.507Z,35.10
2022-08-05T12:08:09.851Z,35.10
2022-08-05T12:10:45.853Z,35.10
2022-08-05T12:13:27.636Z,35.20
2022-08-05T12:16:15.085Z,35.20
2022-08-05T12:18:48.961Z,35.20
2022-08-05T12:21:23.613Z,35.20
2022-08-05T12:24:07.690Z,35.30
2022-08-05T12:26:43.870Z,35.30
2022-08-05T12:29:16.198Z,35.30
2022-08-05T12:31:50.147Z,35.30
2022-08-05T12:34:23.543Z,35.30
2022-08-05T12:36:53.478Z,35.30
2022-08-05T12:39:21.000Z,35.30
2022-08-05T12:41:48.695Z,35.30
2022-08-05T12:44:32.776Z,35.30
2022-08-05T12:47:02.048Z,35.30
2022-08-05T12:50:03.201Z,35.30
2022-08-05T12:52:38.701Z,35.40
2022-08-05T12:55:25.605Z,35.30
2022-08-05T12:58:52.743Z,35.30
2022-08-05T13:02:00.325Z,35.20
2022-08-05T13:03:32.440Z,35.20
2022-08-05T13:06:01.436Z,35.20
2022-08-05T13:08:32.328Z,35.10
2022-08-05T13:11:02.612Z,35.10
2022-08-05T13:14:06.741Z,35.10
2022-08-05T13:16:19.614Z,35.20
2022-08-05T13:18:58.608Z,35.30
2022-08-05T13:21:28.396Z,35.40
2022-08-05T13:24:08.764Z,35.40
2022-08-05T13:26:36.286Z,35.40
2022-08-05T13:29:05.224Z,35.30
2022-08-05T13:31:34.082Z,35.30
2022-08-05T13:34:24.931Z,35.40
2022-08-05T13:36:53.711Z,35.40
2022-08-05T13:40:13.488Z,35.40
2022-08-05T13:42:14.397Z,35.50
2022-08-05T13:44:45.474Z,35.60
2022-08-05T13:47:35.246Z,35.70
2022-08-05T13:50:04.768Z,35.70
2022-08-05T13:52:35.685Z,35.70
2022-08-05T13:55:07.991Z,35.80
2022-08-05T13:57:50.775Z,35.80
2022-08-05T14:00:27.683Z,35.80
2022-08-05T14:02:56.798Z,35.90
2022-08-05T14:05:48.609Z,35.90
2022-08-05T14:08:20.292Z,35.90
2022-08-05T14:10:48.937Z,35.90
2022-08-05T14:13:16.323Z,36.00
2022-08-05T14:16:09.043Z,36.00
2022-08-05T14:18:30.469Z,36.10
2022-08-05T14:20:58.949Z,36.10
2022-08-05T14:23:29.689Z,36.10
2022-08-05T14:26:04.819Z,36.10
2022-08-05T14:28:33.284Z,36.10
2022-08-05T14:31:01.784Z,36.20
2022-08-05T14:33:56.555Z,36.10
2022-08-05T14:36:16.190Z,36.00
2022-08-05T14:38:48.547Z,36.10
2022-08-05T14:41:17.789Z,36.10
2022-08-05T14:44:02.244Z,36.20
2022-08-05T14:46:35.386Z,36.10
2022-08-05T14:49:07.579Z,36.20
2022-08-05T14:51:42.667Z,36.20
2022-08-05T14:54:30.366Z,36.20
2022-08-05T14:56:58.486Z,36.20
2022-08-05T14:59:29.593Z,36.20
2022-08-05T15:02:03.682Z,36.20
2022-08-05T15:04:43.346Z,36.20
2022-08-05T15:07:11.872Z,36.20
2022-08-05T15:09:58.790Z,36.20
2022-08-05T15:12:40.932Z,36.20
2022-08-05T15:15:15.764Z,36.20
2022-08-05T15:17:45.714Z,36.20
2022-08-05T15:20:19.237Z,36.20
2022-08-05T15:22:54.284Z,36.20
2022-08-05T15:25:40.858Z,36.20
2022-08-05T15:28:13.375Z,36.20
2022-08-05T15:30:43.387Z,36.20
2022-08-05T15:33:10.947Z,36.20
2022-08-05T15:35:45.268Z,36.20
2022-08-05T15:38:35.388Z,36.20
2022-08-05T15:41:23.005Z,36.20
2022-08-05T15:43:47.238Z,36.20
2022-08-05T15:46:14.470Z,36.20
2022-08-05T15:48:51.986Z,36.20
2022-08-05T15:52:12.756Z,36.20
2022-08-05T15:54:16.276Z,36.20
2022-08-05T15:56:43.688Z,36.20
2022-08-05T15:59:20.070Z,36.20
2022-08-05T16:01:52.587Z,36.20
2022-08-05T16:04:25.543Z,36.10
2022-08-05T16:06:56.329Z,36.10
2022-08-05T16:09:24.771Z,36.10
2022-08-05T16:11:53.742Z,36.10
2022-08-05T16:14:21.746Z,36.10
2022-08-05T16:16:50.368Z,36.00
2022-08-05T16:19:25.878Z,36.10
2022-08-05T16:22:05.335Z,36.10
2022-08-05T16:24:41.707Z,36.10
2022-08-05T16:27:18.375Z,36.10
2022-08-05T16:29:50.258Z,36.10
2022-08-05T16:32:23.382Z,36.00
2022-08-05T16:34:56.589Z,36.00
2022-08-05T16:38:02.278Z,36.00
2022-08-05T16:40:20.170Z,36.00
2022-08-05T16:42:52.646Z,35.90
2022-08-05T16:46:06.331Z,35.90
2022-08-05T16:48:07.084Z,35.90
2022-08-05T16:50:37.563Z,35.80
2022-08-05T16:53:12.436Z,35.70
2022-08-05T16:55:49.572Z,35.70
2022-08-05T16:58:19.924Z,35.70
2022-08-05T17:00:49.541Z,35.70
2022-08-05T17:03:19.653Z,35.70
2022-08-05T17:05:54.004Z,35.70
2022-08-05T17:08:36.503Z,35.70
2022-08-05T17:11:17.489Z,35.60
2022-08-05T17:13:45.497Z,35.60
2022-08-05T17:16:30.285Z,35.60
2022-08-05T17:18:59.441Z,35.60
2022-08-05T17:21:35.405Z,35.60
2022-08-05T17:24:18.621Z,35.60
2022-08-05T17:26:58.457Z,35.60
2022-08-05T17:29:33.072Z,35.60
2022-08-05T17:32:01.285Z,35.60
2022-08-05T17:34:29.829Z,35.60
2022-08-05T17:36:59.348Z,35.60
2022-08-05T17:39:29.796Z,35.60
2022-08-05T17:42:17.860Z,35.60
2022-08-05T17:44:50.403Z,35.60
2022-08-05T17:47:21.944Z,35.60
2022-08-05T17:50:00.372Z,35.60
2022-08-05T17:52:32.114Z,35.50
2022-08-05T17:54:59.554Z,35.50
2022-08-05T17:57:27.752Z,35.50
2022-08-05T18:00:05.176Z,35.40
2022-08-05T18:02:36.392Z,35.40
2022-08-05T18:05:07.598Z,35.30
2022-08-05T18:07:41.758Z,35.30
2022-08-05T18:10:14.132Z,35.30
2022-08-05T18:12:49.358Z,35.10
2022-08-05T18:15:16.537Z,34.90
2022-08-05T18:17:59.767Z,34.80
2022-08-05T18:20:32.068Z,34.70
2022-08-05T18:23:11.907Z,34.50
2022-08-05T18:25:45.095Z,34.40
2022-08-05T18:28:16.416Z,34.30
2022-08-05T18:30:45.273Z,34.20
2022-08-05T18:33:13.751Z,34.20
2022-08-05T18:36:01.103Z,34.10
2022-08-05T18:38:29.046Z,34.00
2022-08-05T18:41:55.342Z,33.90
2022-08-05T18:43:48.748Z,33.90
2022-08-05T18:46:20.028Z,33.80
2022-08-05T18:48:52.314Z,33.70
2022-08-05T18:52:05.067Z,33.70
2022-08-05T18:54:26.182Z,33.70
2022-08-05T18:56:55.216Z,33.70
2022-08-05T18:59:44.228Z,33.70
2022-08-05T19:02:26.604Z,33.70
2022-08-05T19:05:03.207Z,33.70
2022-08-05T19:07:45.625Z,33.60
2022-08-05T19:10:18.573Z,33.50
2022-08-05T19:12:53.636Z,33.40
2022-08-05T19:15:56.731Z,33.40
2022-08-05T19:18:13.424Z,33.40
2022-08-05T19:20:49.346Z,33.30
2022-08-05T19:23:22.416Z,33.30
2022-08-05T19:26:03.610Z,33.30
2022-08-05T19:28:34.764Z,33.30
2022-08-05T19:31:05.756Z,33.30
2022-08-05T19:33:36.890Z,33.30
2022-08-05T19:36:05.951Z,33.20
2022-08-05T19:38:32.998Z,33.10
2022-08-05T19:41:02.565Z,33.10
2022-08-05T19:44:05.913Z,33.10
2022-08-05T19:46:29.276Z,33.10
2022-08-05T19:49:01.110Z,33.10
2022-08-05T19:52:13.316Z,33.00
2022-08-05T19:54:27.209Z,32.90
2022-08-05T19:56:59.718Z,32.80
2022-08-05T20:00:01.533Z,32.70
2022-08-05T20:02:17.645Z,32.70
2022-08-05T20:04:45.877Z,32.70
2022-08-05T20:07:13.982Z,32.70
2022-08-05T20:09:54.068Z,32.60
2022-08-05T20:12:23.651Z,32.70
2022-08-05T20:14:52.439Z,32.60
2022-08-05T20:17:23.544Z,32.60
2022-08-05T20:19:57.501Z,32.60
2022-08-05T20:22:27.081Z,32.50
2022-08-05T20:24:55.876Z,32.50
2022-08-05T20:27:27.039Z,32.40
2022-08-05T20:29:58.713Z,32.50
2022-08-05T20:32:27.143Z,32.40
2022-08-05T20:34:54.557Z,32.40
2022-08-05T20:38:04.883Z,32.40
2022-08-05T20:40:09.459Z,32.40
2022-08-05T20:42:36.562Z,32.40
2022-08-05T20:45:05.349Z,32.40
2022-08-05T20:47:33.227Z,32.40
2022-08-05T20:50:01.841Z,32.20
2022-08-05T20:52:29.898Z,32.10
2022-08-05T20:55:54.270Z,32.00
2022-08-05T20:57:45.130Z,32.00
2022-08-05T21:00:40.919Z,32.00
2022-08-05T21:03:06.823Z,31.80
2022-08-05T21:05:48.002Z,31.80
2022-08-05T21:08:26.689Z,31.80
2022-08-05T21:10:59.907Z,31.70
2022-08-05T21:13:47.855Z,31.70
2022-08-05T21:16:19.335Z,31.80
2022-08-05T21:18:46.264Z,31.80
2022-08-05T21:21:13.162Z,31.70
2022-08-05T21:23:40.275Z,31.50
2022-08-05T21:26:14.303Z,31.20
2022-08-05T21:28:48.049Z,31.10
2022-08-05T21:31:18.331Z,31.30
2022-08-05T21:33:47.687Z,31.40
2022-08-05T21:36:27.645Z,31.40
2022-08-05T21:38:57.262Z,31.20
2022-08-05T21:41:26.029Z,31.10
2022-08-05T21:44:03.511Z,31.10
2022-08-05T21:46:34.612Z,31.00
2022-08-05T21:49:04.587Z,31.10
2022-08-05T21:52:22.525Z,31.10
2022-08-05T21:54:28.064Z,31.20
2022-08-05T21:57:28.407Z,31.00
2022-08-05T22:00:03.910Z,30.70
2022-08-05T22:02:39.982Z,30.60
2022-08-05T22:05:09.353Z,30.50
2022-08-05T22:07:40.451Z,30.40
2022-08-05T22:10:27.139Z,30.40
2022-08-05T22:12:57.159Z,30.60
2022-08-05T22:16:02.728Z,30.50
2022-08-05T22:18:12.309Z,30.30
2022-08-05T22:20:41.610Z,30.30
2022-08-05T22:24:03.201Z,30.30
2022-08-05T22:26:34.159Z,30.40
2022-08-05T22:29:02.881Z,30.40
2022-08-05T22:31:30.779Z,30.30
2022-08-05T22:34:12.876Z,30.40
2022-08-05T22:36:48.075Z,30.40
2022-08-05T22:39:21.429Z,30.30
2022-08-05T22:42:11.677Z,29.90
2022-08-05T22:44:35.544Z,29.90
2022-08-05T22:47:05.055Z,30.00
2022-08-05T22:50:21.634Z,30.00
2022-08-05T22:52:30.217Z,29.90
2022-08-05T22:55:02.004Z,29.90
2022-08-05T22:57:34.074Z,29.90
2022-08-05T23:00:07.889Z,29.80
2022-08-05T23:02:39.817Z,29.90
2022-08-05T23:05:13.904Z,29.90
2022-08-05T23:07:45.244Z,30.00
2022-08-05T23:10:16.235Z,30.00
2022-08-05T23:12:47.517Z,29.90
2022-08-05T23:15:18.866Z,29.80
2022-08-05T23:18:00.876Z,29.80
2022-08-05T23:20:30.596Z,29.70
2022-08-05T23:22:58.604Z,29.50
2022-08-05T23:25:52.763Z,29.40
2022-08-05T23:28:15.969Z,29.50
2022-08-05T23:30:53.042Z,29.40
2022-08-05T23:33:26.542Z,29.10
2022-08-05T23:36:10.115Z,29.20
2022-08-05T23:38:37.751Z,29.20
2022-08-05T23:41:04.653Z,29.20
2022-08-05T23:44:05.274Z,29.20
2022-08-05T23:46:21.702Z,29.30
2022-08-05T23:49:00.817Z,29.40
2022-08-05T23:51:53.743Z,29.40
2022-08-05T23:54:25.913Z,29.40
2022-08-05T23:57:03.281Z,29.40
